createdAt,value
2022-10-23T00:02:42.000Z,99993.00
2022-10-23T00:05:46.673Z,99981.20
2022-10-23T00:08:52.693Z,99979.40
2022-10-23T00:11:58.680Z,99971.60
2022-10-23T00:15:03.794Z,99978.20
2022-10-23T00:18:08.699Z,99976.20
2022-10-23T00:21:14.689Z,99967.60
2022-10-23T00:24:20.724Z,99963.80
2022-10-23T00:27:26.720Z,99967.20
2022-10-23T00:30:31.725Z,99958.00
2022-10-23T00:33:37.752Z,99960.00
2022-10-23T00:36:45.740Z,99958.80
2022-10-23T00:39:50.762Z,99956.20
2022-10-23T00:42:55.775Z,99952.40
2022-10-23T00:46:04.791Z,99939.40
2022-10-23T00:52:14.801Z,99946.80
2022-10-23T00:55:19.787Z,99940.40
2022-10-23T00:58:25.833Z,99937.00
2022-10-23T01:01:34.919Z,99926.80
2022-10-23T01:04:39.825Z,99928.80
2022-10-23T01:07:44.997Z,99927.80
2022-10-23T01:10:49.907Z,99917.20
2022-10-23T01:13:54.857Z,99911.40
2022-10-23T01:17:00.880Z,99908.20
2022-10-23T01:20:05.891Z,99910.00
2022-10-23T01:23:10.851Z,99913.00
2022-10-23T01:26:15.887Z,99909.80
2022-10-23T01:29:21.873Z,99904.00
2022-10-23T01:32:26.889Z,99899.80
2022-10-23T01:35:32.894Z,99896.00
2022-10-23T01:38:38.900Z,99893.00
2022-10-23T01:41:43.888Z,99897.80
2022-10-23T01:44:48.961Z,99890.20
2022-10-23T01:47:53.909Z,99883.00
2022-10-23T01:51:00.007Z,99888.60
2022-10-23T01:54:05.937Z,99892.60
2022-10-23T01:57:10.991Z,99897.00
2022-10-23T02:00:15.008Z,99885.80
2022-10-23T02:03:20.974Z,99879.20
2022-10-23T02:06:25.972Z,99883.60
2022-10-23T02:09:31.026Z,99878.20
2022-10-23T02:12:35.989Z,99877.40
2022-10-23T02:15:41.003Z,99884.40
2022-10-23T02:18:46.023Z,99887.60
2022-10-23T02:21:52.025Z,99897.40
2022-10-23T02:24:57.020Z,99898.40
2022-10-23T02:28:02.028Z,99903.80
2022-10-23T02:31:08.033Z,99919.80
2022-10-23T02:34:13.062Z,99917.00
2022-10-23T02:37:18.073Z,99921.20
2022-10-23T02:40:24.064Z,99924.20
2022-10-23T02:43:29.130Z,99920.80
2022-10-23T02:46:34.066Z,99928.60
2022-10-23T02:49:38.096Z,99930.60
2022-10-23T02:52:43.079Z,99929.20
2022-10-23T02:55:48.125Z,99943.20
2022-10-23T02:58:53.085Z,99956.60
2022-10-23T03:02:01.157Z,99953.00
2022-10-23T03:05:06.120Z,99961.40
2022-10-23T03:08:11.203Z,99954.20
2022-10-23T03:11:16.116Z,99951.20
2022-10-23T03:14:21.124Z,99944.20
2022-10-23T03:17:26.252Z,99972.20
2022-10-23T03:20:31.134Z,99974.40
2022-10-23T03:23:37.150Z,99983.40
2022-10-23T03:26:41.147Z,99987.80
2022-10-23T03:29:34.171Z,99988.00
2022-10-23T03:32:39.177Z,99987.80
2022-10-23T03:35:43.271Z,99995.20
2022-10-23T03:38:48.169Z,99992.40
2022-10-23T03:41:53.218Z,99994.00
2022-10-23T03:44:58.241Z,99997.80
2022-10-23T03:48:04.224Z,100003.00
2022-10-23T03:51:09.228Z,100001.40
2022-10-23T03:54:13.240Z,100009.20
2022-10-23T03:57:19.244Z,100009.40
2022-10-23T04:00:12.264Z,100012.60
2022-10-23T04:03:17.269Z,100004.00
2022-10-23T04:06:23.246Z,100008.80
2022-10-23T04:09:28.302Z,100006.60
2022-10-23T04:12:33.286Z,100011.60
2022-10-23T04:15:38.293Z,100017.40
2022-10-23T04:18:43.308Z,100023.00
2022-10-23T04:21:49.319Z,100017.60
2022-10-23T04:24:55.309Z,100038.80
2022-10-23T04:28:03.356Z,100037.80
2022-10-23T04:30:57.340Z,100045.20
2022-10-23T04:34:03.412Z,100047.20
2022-10-23T04:37:08.336Z,100044.20
2022-10-23T04:40:13.367Z,100055.60
2022-10-23T04:43:18.340Z,100048.40
2022-10-23T04:46:23.392Z,100042.40
2022-10-23T04:49:28.402Z,100047.60
2022-10-23T04:52:35.442Z,100049.20
2022-10-23T04:55:41.391Z,100062.20
2022-10-23T04:58:45.433Z,100062.80
2022-10-23T05:01:49.433Z,100063.60
2022-10-23T05:04:54.465Z,100061.20
2022-10-23T05:08:02.415Z,100076.80
2022-10-23T05:11:07.557Z,100092.00
2022-10-23T05:14:12.463Z,100111.20
2022-10-23T05:17:18.412Z,100105.00
2022-10-23T05:20:24.478Z,100106.60
2022-10-23T05:23:29.450Z,100091.00
2022-10-23T05:26:37.491Z,100105.40
2022-10-23T05:29:42.454Z,100104.00
2022-10-23T05:32:36.539Z,100106.60
2022-10-23T05:35:41.488Z,100114.80
2022-10-23T05:38:47.547Z,100121.20
2022-10-23T05:41:52.499Z,100130.40
2022-10-23T05:44:57.543Z,100145.00
2022-10-23T05:48:10.779Z,100147.20
2022-10-23T05:51:22.548Z,100148.40
2022-10-23T05:54:27.598Z,100151.60
2022-10-23T05:57:32.558Z,100162.20
2022-10-23T06:00:40.559Z,100165.20
2022-10-23T06:03:34.566Z,100168.60
2022-10-23T06:06:40.681Z,100176.20
2022-10-23T06:09:45.553Z,100177.40
2022-10-23T06:12:50.567Z,100177.80
2022-10-23T06:15:56.570Z,100194.60
2022-10-23T06:19:01.606Z,100201.60
2022-10-23T06:22:07.662Z,100213.80
2022-10-23T06:25:13.625Z,100209.40
2022-10-23T06:28:20.604Z,100226.80
2022-10-23T06:31:25.685Z,100233.40
2022-10-23T06:34:30.603Z,100233.60
2022-10-23T06:37:36.638Z,100239.40
2022-10-23T06:40:41.649Z,100243.80
2022-10-23T06:43:46.733Z,100236.40
2022-10-23T06:46:54.671Z,100248.80
2022-10-23T06:49:59.684Z,100242.40
2022-10-23T06:53:05.682Z,100252.00
2022-10-23T06:56:11.745Z,100258.60
2022-10-23T06:59:16.686Z,100265.40
2022-10-23T07:02:21.703Z,100269.40
2022-10-23T07:05:18.725Z,100272.00
2022-10-23T07:08:24.727Z,100274.60
2022-10-23T07:11:29.734Z,100281.40
2022-10-23T07:14:37.721Z,100287.40
2022-10-23T07:17:43.726Z,100289.20
2022-10-23T07:20:49.734Z,100284.80
2022-10-23T07:23:55.757Z,100292.60
2022-10-23T07:26:59.801Z,100298.80
2022-10-23T07:30:04.785Z,100300.40
2022-10-23T07:33:10.766Z,100302.40
2022-10-23T07:36:04.790Z,100308.80
2022-10-23T07:39:09.806Z,100310.80
2022-10-23T07:42:15.804Z,100316.60
2022-10-23T07:45:21.801Z,100319.40
2022-10-23T07:48:26.837Z,100327.40
2022-10-23T07:51:31.830Z,100326.00
2022-10-23T07:54:40.830Z,100331.40
2022-10-23T07:57:46.848Z,100328.20
2022-10-23T08:00:55.910Z,100333.60
2022-10-23T08:04:03.856Z,100342.20
2022-10-23T08:07:08.850Z,100345.00
2022-10-23T08:10:16.863Z,100351.80
2022-10-23T08:13:22.918Z,100348.80
2022-10-23T08:16:27.873Z,100351.60
2022-10-23T08:19:31.884Z,100358.40
2022-10-23T08:22:37.975Z,100359.40
2022-10-23T08:25:43.899Z,100367.60
2022-10-23T08:28:49.924Z,100366.20
2022-10-23T08:31:55.964Z,100367.60
2022-10-23T08:35:00.984Z,100379.60
2022-10-23T08:38:05.969Z,100383.60
2022-10-23T08:41:11.947Z,100382.80
2022-10-23T08:44:16.964Z,100375.80
2022-10-23T08:47:21.974Z,100376.20
2022-10-23T08:50:26.990Z,100384.60
2022-10-23T08:53:32.088Z,100385.80
2022-10-23T08:56:37.995Z,100391.40
2022-10-23T08:59:44.053Z,100392.20
2022-10-23T09:02:49.077Z,100388.00
2022-10-23T09:05:54.014Z,100396.40
2022-10-23T09:09:00.016Z,100396.60
2022-10-23T09:12:05.999Z,100403.80
2022-10-23T09:15:11.051Z,100406.80
2022-10-23T09:18:17.028Z,100409.20
2022-10-23T09:21:22.065Z,100410.20
2022-10-23T09:24:28.031Z,100406.00
2022-10-23T09:27:34.062Z,100411.20
2022-10-23T09:30:39.081Z,100409.40
2022-10-23T09:33:44.159Z,100411.20
2022-10-23T09:36:50.168Z,100410.00
2022-10-23T09:39:55.099Z,100406.40
2022-10-23T09:43:00.222Z,100400.40
2022-10-23T09:46:06.131Z,100402.20
2022-10-23T09:49:11.102Z,100404.80
2022-10-23T09:52:16.140Z,100403.60
2022-10-23T09:55:21.136Z,100409.40
2022-10-23T09:58:30.208Z,100411.80
2022-10-23T10:01:36.479Z,100403.60
2022-10-23T10:04:41.175Z,100407.80
2022-10-23T10:07:47.189Z,100405.40
2022-10-23T10:10:41.169Z,100400.40
2022-10-23T10:13:46.187Z,100399.60
2022-10-23T10:16:51.214Z,100398.00
2022-10-23T10:19:56.204Z,100395.80
2022-10-23T10:23:01.186Z,100390.00
2022-10-23T10:26:06.316Z,100388.40
2022-10-23T10:29:11.192Z,100393.00
2022-10-23T10:32:17.248Z,100394.00
2022-10-23T10:35:23.226Z,100396.00
2022-10-23T10:38:28.261Z,100385.00
2022-10-23T10:41:41.272Z,100382.60
2022-10-23T10:44:49.379Z,100373.00
2022-10-23T10:47:54.287Z,100368.80
2022-10-23T10:51:09.298Z,100369.20
2022-10-23T10:54:14.268Z,100365.20
2022-10-23T10:57:19.303Z,100360.20
2022-10-23T11:00:24.307Z,100353.80
2022-10-23T11:03:30.327Z,100359.60
2022-10-23T11:06:36.351Z,100360.80
2022-10-23T11:09:41.351Z,100355.60
2022-10-23T11:12:34.331Z,100351.40
2022-10-23T11:15:39.357Z,100352.20
2022-10-23T11:18:45.461Z,100356.40
2022-10-23T11:21:51.327Z,100351.40
2022-10-23T11:24:58.492Z,100354.80
2022-10-23T11:28:35.437Z,100355.40
2022-10-23T11:31:39.394Z,100353.40
2022-10-23T11:34:45.401Z,100352.00
2022-10-23T11:37:50.381Z,100351.40
2022-10-23T11:40:55.395Z,100350.00
2022-10-23T11:44:10.413Z,100349.00
2022-10-23T11:47:15.423Z,100343.80
2022-10-23T11:50:53.455Z,100347.40
2022-10-23T11:53:58.456Z,100348.20
2022-10-23T11:57:07.011Z,100345.40
2022-10-23T12:00:16.519Z,100343.60
2022-10-23T12:03:21.425Z,100344.60
2022-10-23T12:06:27.472Z,100340.40
2022-10-23T12:09:35.509Z,100339.40
2022-10-23T12:12:40.466Z,100336.80
2022-10-23T12:15:45.487Z,100339.20
2022-10-23T12:18:50.555Z,100336.20
2022-10-23T12:21:55.504Z,100341.00
2022-10-23T12:25:00.513Z,100340.80
2022-10-23T12:28:06.513Z,100340.40
2022-10-23T12:31:11.522Z,100339.40
2022-10-23T12:34:16.549Z,100342.80
2022-10-23T12:37:20.553Z,100341.00
2022-10-23T12:40:29.527Z,100341.60
2022-10-23T12:43:39.659Z,100346.20
2022-10-23T12:46:45.621Z,100355.20
2022-10-23T12:49:50.558Z,100357.00
2022-10-23T12:52:55.596Z,100352.60
2022-10-23T12:59:04.621Z,100342.20
2022-10-23T13:02:10.770Z,100348.40
2022-10-23T13:05:18.666Z,100345.40
2022-10-23T13:08:23.629Z,100348.40
2022-10-23T13:11:28.634Z,100351.00
2022-10-23T13:14:33.646Z,100350.40
2022-10-23T13:17:39.656Z,100349.60
2022-10-23T13:20:46.647Z,100349.60
2022-10-23T13:23:52.675Z,100359.20
2022-10-23T13:26:58.705Z,100360.80
2022-10-23T13:30:05.045Z,100361.20
2022-10-23T13:33:14.690Z,100360.60
2022-10-23T13:36:19.722Z,100361.20
2022-10-23T13:39:28.808Z,100367.20
2022-10-23T13:42:33.744Z,100367.40
2022-10-23T13:45:38.834Z,100378.20
2022-10-23T13:48:43.722Z,100373.00
2022-10-23T13:51:48.758Z,100385.60
2022-10-23T13:54:53.749Z,100387.00
2022-10-23T13:57:59.809Z,100393.00
2022-10-23T14:01:04.831Z,100391.80
2022-10-23T14:04:10.756Z,100389.80
2022-10-23T14:07:15.781Z,100386.80
2022-10-23T14:10:23.529Z,100390.20
2022-10-23T14:13:30.804Z,100395.60
2022-10-23T14:16:36.786Z,100392.60
2022-10-23T14:19:45.778Z,100401.40
2022-10-23T14:22:51.807Z,100402.20
2022-10-23T14:25:56.837Z,100399.60
2022-10-23T14:29:09.823Z,100402.00
2022-10-23T14:32:22.836Z,100397.80
2022-10-23T14:35:28.856Z,100391.60
2022-10-23T14:38:33.906Z,100398.80
2022-10-23T14:41:39.911Z,100399.80
2022-10-23T14:44:45.151Z,100400.40
2022-10-23T14:47:49.944Z,100399.00
2022-10-23T14:50:55.890Z,100398.40
2022-10-23T14:53:59.922Z,100392.00
2022-10-23T14:57:04.905Z,100396.40
2022-10-23T15:00:10.049Z,100392.00
2022-10-23T15:03:17.907Z,100396.40
2022-10-23T15:06:22.975Z,100402.60
2022-10-23T15:09:27.963Z,100404.40
2022-10-23T15:15:43.952Z,100416.00
2022-10-23T15:18:49.958Z,100420.40
2022-10-23T15:21:55.204Z,100423.80
2022-10-23T15:25:00.963Z,100427.40
2022-10-23T15:28:07.046Z,100428.40
2022-10-23T15:31:13.015Z,100428.00
2022-10-23T15:34:17.971Z,100433.80
2022-10-23T15:37:24.017Z,100432.40
2022-10-23T15:40:30.120Z,100434.40
2022-10-23T15:43:35.019Z,100435.20
2022-10-23T15:46:40.017Z,100443.80
2022-10-23T15:49:46.012Z,100447.60
2022-10-23T15:52:54.076Z,100445.20
2022-10-23T15:55:58.048Z,100455.60
2022-10-23T15:59:10.128Z,100463.80
2022-10-23T16:02:21.174Z,100466.00
2022-10-23T16:05:27.068Z,100468.80
2022-10-23T16:08:32.154Z,100475.20
2022-10-23T16:11:42.121Z,100478.60
2022-10-23T16:14:46.102Z,100479.00
2022-10-23T16:17:52.128Z,100484.20
2022-10-23T16:20:57.125Z,100488.60
2022-10-23T16:23:51.103Z,100496.20
2022-10-23T16:26:57.128Z,100497.20
2022-10-23T16:30:03.178Z,100504.40
2022-10-23T16:33:08.205Z,100505.00
2022-10-23T16:36:16.132Z,100508.00
2022-10-23T16:39:20.180Z,100513.60
2022-10-23T16:42:26.162Z,100513.40
2022-10-23T16:45:34.446Z,100516.60
2022-10-23T16:48:41.165Z,100520.60
2022-10-23T16:51:50.197Z,100520.40
2022-10-23T16:54:55.253Z,100528.40
2022-10-23T16:58:01.305Z,100526.20
2022-10-23T17:01:06.338Z,100527.00
2022-10-23T17:04:11.249Z,100538.00
2022-10-23T17:07:16.279Z,100543.60
2022-10-23T17:10:22.354Z,100547.20
2022-10-23T17:13:28.253Z,100546.60
2022-10-23T17:16:33.346Z,100551.00
2022-10-23T17:19:46.040Z,100556.80
2022-10-23T17:22:52.337Z,100552.20
2022-10-23T17:25:57.260Z,100559.40
2022-10-23T17:29:02.265Z,100562.20
2022-10-23T17:32:06.417Z,100566.80
2022-10-23T17:35:14.316Z,100566.40
2022-10-23T17:38:19.306Z,100572.40
2022-10-23T17:41:24.297Z,100568.40
2022-10-23T17:44:34.320Z,100569.00
2022-10-23T17:47:39.364Z,100567.60
2022-10-23T17:50:44.348Z,100572.00
2022-10-23T17:53:50.343Z,100570.60
2022-10-23T17:56:56.375Z,100577.00
2022-10-23T18:00:04.340Z,100581.40
2022-10-23T18:03:09.378Z,100574.20
2022-10-23T18:06:17.385Z,100582.40
2022-10-23T18:09:22.489Z,100582.20
2022-10-23T18:12:28.388Z,100587.40
2022-10-23T18:15:41.424Z,100586.60
2022-10-23T18:18:46.456Z,100593.60
2022-10-23T18:21:52.422Z,100600.20
2022-10-23T18:24:58.690Z,100610.00
2022-10-23T18:28:04.482Z,100610.60
2022-10-23T18:31:09.422Z,100613.80
2022-10-23T18:34:15.430Z,100611.60
2022-10-23T18:37:26.798Z,100613.00
2022-10-23T18:40:33.502Z,100606.20
2022-10-23T18:43:44.021Z,100607.00
2022-10-23T18:46:49.435Z,100612.80
2022-10-23T18:49:55.474Z,100611.00
2022-10-23T18:53:00.520Z,100616.00
2022-10-23T18:56:06.495Z,100620.00
2022-10-23T18:59:12.507Z,100619.80
2022-10-23T19:02:17.854Z,100622.60
2022-10-23T19:05:23.518Z,100627.80
2022-10-23T19:08:28.577Z,100629.60
2022-10-23T19:11:33.529Z,100627.40
2022-10-23T19:14:38.617Z,100638.40
2022-10-23T19:17:43.607Z,100641.40
2022-10-23T19:21:10.559Z,100645.20
2022-10-23T19:24:19.575Z,100650.40
2022-10-23T19:27:27.657Z,100652.00
2022-10-23T19:30:32.602Z,100652.20
2022-10-23T19:33:38.612Z,100648.40
2022-10-23T19:36:52.649Z,100645.40
2022-10-23T19:39:58.620Z,100640.80
2022-10-23T19:43:04.696Z,100643.00
2022-10-23T19:46:12.266Z,100643.80
2022-10-23T19:49:16.780Z,100646.00
2022-10-23T19:52:22.646Z,100649.80
2022-10-23T19:55:30.667Z,100652.80
2022-10-23T19:58:34.638Z,100657.20
2022-10-23T20:01:39.961Z,100657.00
2022-10-23T20:04:45.662Z,100659.60
2022-10-23T20:07:50.753Z,100661.20
2022-10-23T20:10:59.672Z,100664.00
2022-10-23T20:14:04.707Z,100665.80
2022-10-23T20:17:08.881Z,100668.40
2022-10-23T20:20:16.731Z,100663.40
2022-10-23T20:23:55.730Z,100660.00
2022-10-23T20:27:00.727Z,100667.80
2022-10-23T20:30:09.919Z,100672.40
2022-10-23T20:33:14.795Z,100668.20
2022-10-23T20:36:22.738Z,100671.20
2022-10-23T20:39:30.762Z,100667.20
2022-10-23T20:42:35.781Z,100666.60
2022-10-23T20:45:40.783Z,100668.00
2022-10-23T20:48:45.785Z,100666.00
2022-10-23T20:51:54.779Z,100665.20
2022-10-23T20:54:59.784Z,100665.80
2022-10-23T20:58:04.802Z,100663.40
2022-10-23T21:01:10.945Z,100667.20
2022-10-23T21:04:15.873Z,100670.40
2022-10-23T21:07:20.811Z,100673.80
2022-10-23T21:10:26.812Z,100671.60
2022-10-23T21:13:32.887Z,100672.20
2022-10-23T21:16:37.817Z,100671.40
2022-10-23T21:19:45.877Z,100672.80
2022-10-23T21:22:51.866Z,100667.00
2022-10-23T21:25:56.861Z,100669.00
2022-10-23T21:29:17.513Z,100672.00
2022-10-23T21:32:22.934Z,100665.00
2022-10-23T21:35:30.004Z,100662.00
2022-10-23T21:38:35.895Z,100664.00
2022-10-23T21:41:41.004Z,100664.40
2022-10-23T21:44:45.933Z,100667.20
2022-10-23T21:47:51.925Z,100676.00
2022-10-23T21:50:57.993Z,100688.00
2022-10-23T21:54:02.917Z,100693.60
2022-10-23T21:57:07.934Z,100699.00
2022-10-23T22:00:13.933Z,100698.40
2022-10-23T22:03:18.991Z,100702.40
2022-10-23T22:06:23.982Z,100702.40
2022-10-23T22:09:29.994Z,100698.80
2022-10-23T22:12:34.984Z,100702.60
2022-10-23T22:15:41.006Z,100697.20
2022-10-23T22:18:49.005Z,100686.60
2022-10-23T22:21:54.999Z,100682.40
2022-10-23T22:25:00.050Z,100684.40
2022-10-23T22:28:05.102Z,100698.20
2022-10-23T22:31:09.035Z,100701.00
2022-10-23T22:34:26.662Z,100699.60
2022-10-23T22:37:43.032Z,100697.00
2022-10-23T22:40:51.041Z,100698.60
2022-10-23T22:43:57.060Z,100710.40
2022-10-23T22:47:02.071Z,100716.00
2022-10-23T22:50:08.078Z,100712.80
2022-10-23T22:53:13.201Z,100716.40
2022-10-23T22:56:19.147Z,100723.40
2022-10-23T22:59:25.112Z,100731.00
2022-10-23T23:02:30.109Z,100729.60
2022-10-23T23:05:34.126Z,100722.60
2022-10-23T23:08:40.146Z,100718.60
2022-10-23T23:11:51.602Z,100713.40
2022-10-23T23:14:57.159Z,100725.80
2022-10-23T23:18:03.148Z,100722.80
2022-10-23T23:21:08.181Z,100716.60
2022-10-23T23:24:17.165Z,100718.80
2022-10-23T23:27:21.158Z,100731.60
2022-10-23T23:30:27.228Z,100738.60
2022-10-23T23:33:32.157Z,100740.40
2022-10-23T23:36:37.179Z,100740.00
2022-10-23T23:39:42.253Z,100737.20
2022-10-23T23:42:46.474Z,100730.80
2022-10-23T23:45:51.202Z,100734.20
2022-10-23T23:48:57.279Z,100730.00
2022-10-23T23:52:03.206Z,100721.20
2022-10-23T23:55:09.242Z,100726.00
2022-10-23T23:58:15.249Z,100735.00
